createdAt,value
2022-08-16T00:00:04.312Z,20.38
2022-08-16T00:01:03.545Z,20.33
2022-08-16T00:02:03.564Z,20.31
2022-08-16T00:03:04.529Z,20.34
2022-08-16T00:04:05.031Z,20.31
2022-08-16T00:05:03.517Z,20.33
2022-08-16T00:06:03.480Z,20.31
2022-08-16T00:07:03.475Z,20.30
2022-08-16T00:08:05.005Z,20.24
2022-08-16T00:09:03.461Z,20.16
2022-08-16T00:10:03.453Z,20.13
2022-08-16T00:11:03.434Z,20.10
2022-08-16T00:12:03.424Z,20.09
2022-08-16T00:13:03.413Z,20.05
2022-08-16T00:14:08.694Z,20.03
2022-08-16T00:15:04.405Z,20.00
2022-08-16T00:17:05.689Z,20.00
2022-08-16T00:17:18.620Z,19.98
2022-08-16T00:18:04.347Z,20.00
2022-08-16T00:19:03.335Z,19.97
2022-08-16T00:20:03.958Z,19.94
2022-08-16T00:21:03.826Z,19.90
2022-08-16T00:22:12.753Z,19.86
2022-08-16T00:23:04.306Z,19.83
2022-08-16T00:24:04.813Z,19.78
2022-08-16T00:25:03.294Z,19.76
2022-08-16T00:26:34.964Z,19.76
2022-08-16T00:27:04.278Z,19.73
2022-08-16T00:28:04.194Z,19.72
2022-08-16T00:29:03.223Z,19.73
2022-08-16T00:30:19.219Z,19.72
2022-08-16T00:31:04.210Z,19.72
2022-08-16T00:32:05.750Z,19.72
2022-08-16T00:33:03.181Z,19.72
2022-08-16T00:34:04.466Z,19.70
2022-08-16T00:35:03.186Z,19.69
2022-08-16T00:36:04.148Z,19.68
2022-08-16T00:37:03.579Z,19.68
2022-08-16T00:38:03.128Z,19.68
2022-08-16T00:39:04.114Z,19.68
2022-08-16T00:40:03.168Z,19.66
2022-08-16T00:41:03.133Z,19.65
2022-08-16T00:42:03.083Z,19.66
2022-08-16T00:43:03.085Z,19.65
2022-08-16T00:44:03.068Z,19.66
2022-08-16T00:45:08.293Z,19.68
2022-08-16T00:46:33.959Z,19.68
2022-08-16T00:47:06.486Z,19.69
2022-08-16T00:48:03.018Z,19.69
2022-08-16T00:49:04.016Z,19.68
2022-08-16T00:50:02.997Z,19.68
2022-08-16T00:51:03.012Z,19.65
2022-08-16T00:52:02.966Z,19.65
2022-08-16T00:53:02.980Z,19.63
2022-08-16T00:54:02.953Z,19.63
2022-08-16T00:55:02.955Z,19.61
2022-08-16T00:56:05.530Z,19.60
2022-08-16T00:57:02.922Z,19.57
2022-08-16T00:58:02.903Z,19.55
2022-08-16T00:59:02.913Z,19.55
2022-08-16T01:00:02.896Z,19.55
2022-08-16T01:01:02.922Z,19.57
2022-08-16T01:02:30.121Z,19.54
2022-08-16T01:03:03.863Z,19.53
2022-08-16T01:04:02.863Z,19.53
2022-08-16T01:05:09.566Z,19.51
2022-08-16T01:06:32.467Z,19.48
2022-08-16T01:07:03.810Z,19.48
2022-08-16T01:08:02.805Z,19.47
2022-08-16T01:09:03.803Z,19.47
2022-08-16T01:10:02.803Z,19.47
2022-08-16T01:11:02.792Z,19.46
2022-08-16T01:12:02.766Z,19.46
2022-08-16T01:13:04.462Z,19.43
2022-08-16T01:14:02.740Z,19.42
2022-08-16T01:15:02.759Z,19.42
2022-08-16T01:16:02.969Z,19.40
2022-08-16T01:17:02.729Z,19.40
2022-08-16T01:18:02.689Z,19.43
2022-08-16T01:19:02.785Z,19.40
2022-08-16T01:20:02.691Z,19.38
2022-08-16T01:21:03.669Z,19.36
2022-08-16T01:22:47.913Z,19.38
2022-08-16T01:23:03.801Z,19.36
2022-08-16T01:24:02.621Z,19.38
2022-08-16T01:25:02.642Z,19.39
2022-08-16T01:26:34.298Z,19.42
2022-08-16T01:27:03.904Z,19.43
2022-08-16T01:28:02.624Z,19.46
2022-08-16T01:29:02.567Z,19.47
2022-08-16T01:30:02.561Z,19.50
2022-08-16T01:31:02.545Z,19.50
2022-08-16T01:32:03.491Z,19.50
2022-08-16T01:33:15.073Z,19.51
2022-08-16T01:34:03.514Z,19.53
2022-08-16T01:35:02.515Z,19.51
2022-08-16T01:36:02.495Z,19.51
2022-08-16T01:37:03.483Z,19.50
2022-08-16T01:38:02.481Z,19.50
2022-08-16T01:39:02.486Z,19.53
2022-08-16T01:40:03.505Z,19.53
2022-08-16T01:41:02.646Z,19.54
2022-08-16T01:42:02.425Z,19.55
2022-08-16T01:43:03.432Z,19.55
2022-08-16T01:44:02.398Z,19.53
2022-08-16T01:45:02.399Z,19.53
2022-08-16T01:46:37.389Z,19.51
2022-08-16T01:47:04.327Z,19.50
2022-08-16T01:48:02.360Z,19.48
2022-08-16T01:49:04.296Z,19.47
2022-08-16T01:50:42.872Z,19.43
2022-08-16T01:51:09.438Z,19.43
2022-08-16T01:52:03.309Z,19.42
2022-08-16T01:53:02.313Z,19.39
2022-08-16T01:54:03.256Z,19.38
2022-08-16T01:55:02.388Z,19.36
2022-08-16T01:56:02.276Z,19.36
2022-08-16T01:57:03.216Z,19.35
2022-08-16T01:58:02.261Z,19.32
2022-08-16T01:59:02.273Z,19.31
2022-08-16T02:00:02.235Z,19.29
2022-08-16T02:01:02.268Z,19.29
2022-08-16T02:02:03.203Z,19.29
2022-08-16T02:03:03.194Z,19.28
2022-08-16T02:04:11.111Z,19.28
2022-08-16T02:05:04.121Z,19.24
2022-08-16T02:06:02.166Z,19.25
2022-08-16T02:07:03.147Z,19.25
2022-08-16T02:08:02.138Z,19.28
2022-08-16T02:09:02.119Z,19.25
2022-08-16T02:10:03.111Z,19.25
2022-08-16T02:11:02.104Z,19.25
2022-08-16T02:12:50.187Z,19.25
2022-08-16T02:13:03.515Z,19.24
2022-08-16T02:14:02.073Z,19.23
2022-08-16T02:15:02.061Z,19.23
2022-08-16T02:16:02.061Z,19.23
2022-08-16T02:17:02.437Z,19.21
2022-08-16T02:18:02.043Z,19.20
2022-08-16T02:19:02.016Z,19.20
2022-08-16T02:20:03.004Z,19.18
2022-08-16T02:21:02.983Z,19.17
2022-08-16T02:22:08.863Z,19.17
2022-08-16T02:23:05.739Z,19.17
2022-08-16T02:24:01.962Z,19.17
2022-08-16T02:25:01.945Z,19.15
2022-08-16T02:26:01.944Z,19.15
2022-08-16T02:27:01.964Z,19.13
2022-08-16T02:28:01.911Z,19.14
2022-08-16T02:29:01.912Z,19.15
2022-08-16T02:30:04.893Z,19.14
2022-08-16T02:31:01.907Z,19.14
2022-08-16T02:32:04.014Z,19.11
2022-08-16T02:33:03.626Z,19.13
2022-08-16T02:34:06.360Z,19.11
2022-08-16T02:35:01.918Z,19.11
2022-08-16T02:36:01.840Z,19.08
2022-08-16T02:37:01.811Z,19.08
2022-08-16T02:38:08.946Z,19.08
2022-08-16T02:39:02.789Z,19.08
2022-08-16T02:40:02.802Z,19.08
2022-08-16T02:41:01.941Z,19.06
2022-08-16T02:42:01.770Z,19.01
2022-08-16T02:43:01.770Z,18.99
2022-08-16T02:44:01.755Z,18.98
2022-08-16T02:45:01.746Z,18.97
2022-08-16T02:46:01.712Z,18.97
2022-08-16T02:47:02.706Z,18.97
2022-08-16T02:48:29.227Z,18.98
2022-08-16T02:49:02.687Z,18.99
2022-08-16T02:50:55.494Z,18.98
2022-08-16T02:51:10.308Z,18.97
2022-08-16T02:52:02.655Z,18.97
2022-08-16T02:53:01.645Z,18.97
2022-08-16T02:54:01.635Z,19.01
2022-08-16T02:55:01.617Z,18.98
2022-08-16T02:56:01.627Z,18.97
2022-08-16T02:57:01.608Z,18.97
2022-08-16T02:58:01.601Z,18.95
2022-08-16T02:59:01.570Z,18.95
2022-08-16T03:00:03.770Z,18.97
2022-08-16T03:01:02.598Z,18.97
2022-08-16T03:02:01.578Z,18.98
2022-08-16T03:03:03.497Z,18.98
2022-08-16T03:04:46.241Z,18.97
2022-08-16T03:05:02.494Z,18.97
2022-08-16T03:06:01.491Z,18.94
2022-08-16T03:07:01.494Z,18.90
2022-08-16T03:08:01.472Z,18.90
2022-08-16T03:09:01.471Z,18.86
2022-08-16T03:10:01.451Z,18.83
2022-08-16T03:11:01.478Z,18.83
2022-08-16T03:12:02.529Z,18.83
2022-08-16T03:13:01.942Z,18.83
2022-08-16T03:14:01.410Z,18.82
2022-08-16T03:15:02.391Z,18.82
2022-08-16T03:16:01.386Z,18.82
2022-08-16T03:17:02.031Z,18.80
2022-08-16T03:18:01.355Z,18.79
2022-08-16T03:19:01.743Z,18.80
2022-08-16T03:20:02.826Z,18.79
2022-08-16T03:21:01.326Z,18.76
2022-08-16T03:22:01.317Z,18.74
2022-08-16T03:23:01.657Z,18.76
2022-08-16T03:24:01.306Z,18.74
2022-08-16T03:25:01.713Z,18.74
2022-08-16T03:26:01.269Z,18.76
2022-08-16T03:27:02.835Z,18.77
2022-08-16T03:28:01.255Z,18.79
2022-08-16T03:29:01.240Z,18.76
2022-08-16T03:30:01.222Z,18.76
2022-08-16T03:31:01.206Z,18.74
2022-08-16T03:32:01.762Z,18.76
2022-08-16T03:33:01.196Z,18.77
2022-08-16T03:34:01.175Z,18.76
2022-08-16T03:35:01.162Z,18.76
2022-08-16T03:36:30.981Z,18.76
2022-08-16T03:37:02.145Z,18.76
2022-08-16T03:38:02.493Z,18.74
2022-08-16T03:39:01.120Z,18.74
2022-08-16T03:40:02.971Z,18.74
2022-08-16T03:41:01.093Z,18.72
2022-08-16T03:42:01.104Z,18.68
2022-08-16T03:43:20.765Z,18.65
2022-08-16T03:44:03.045Z,18.61
2022-08-16T03:45:03.889Z,18.58
2022-08-16T03:46:01.034Z,18.58
2022-08-16T03:47:01.033Z,18.54
2022-08-16T03:48:01.016Z,18.52
2022-08-16T03:49:02.030Z,18.50
2022-08-16T03:50:01.006Z,18.50
2022-08-16T03:51:00.991Z,18.52
2022-08-16T03:52:00.979Z,18.52
2022-08-16T03:53:05.413Z,18.54
2022-08-16T03:54:01.972Z,18.50
2022-08-16T03:55:00.953Z,18.52
2022-08-16T03:56:00.930Z,18.50
2022-08-16T03:57:00.920Z,18.50
2022-08-16T03:58:00.922Z,18.49
2022-08-16T03:59:00.911Z,18.46
2022-08-16T04:00:00.910Z,18.47
2022-08-16T04:01:00.900Z,18.47
2022-08-16T04:02:01.526Z,18.47
2022-08-16T04:03:00.853Z,18.44
2022-08-16T04:04:00.833Z,18.44
2022-08-16T04:05:00.844Z,18.43
2022-08-16T04:06:02.202Z,18.40
2022-08-16T04:07:00.803Z,18.39
2022-08-16T04:08:00.806Z,18.36
2022-08-16T04:09:01.776Z,18.36
2022-08-16T04:10:00.786Z,18.36
2022-08-16T04:11:01.766Z,18.33
2022-08-16T04:12:00.749Z,18.34
2022-08-16T04:13:04.431Z,18.34
2022-08-16T04:14:32.540Z,18.36
2022-08-16T04:15:02.487Z,18.39
2022-08-16T04:16:00.847Z,18.37
2022-08-16T04:17:00.700Z,18.40
2022-08-16T04:18:00.690Z,18.37
2022-08-16T04:19:02.486Z,18.39
2022-08-16T04:20:00.668Z,18.40
2022-08-16T04:21:00.648Z,18.43
2022-08-16T04:22:01.035Z,18.47
2022-08-16T04:23:01.625Z,18.49
2022-08-16T04:24:00.650Z,18.49
2022-08-16T04:25:00.660Z,18.54
2022-08-16T04:26:02.141Z,18.52
2022-08-16T04:27:00.594Z,18.52
2022-08-16T04:28:52.257Z,18.50
2022-08-16T04:29:17.087Z,18.54
2022-08-16T04:30:02.546Z,18.55
2022-08-16T04:31:00.543Z,18.58
2022-08-16T04:32:00.549Z,18.57
2022-08-16T04:33:00.528Z,18.58
2022-08-16T04:34:00.507Z,18.59
2022-08-16T04:35:04.881Z,18.62
2022-08-16T04:36:01.485Z,18.64
2022-08-16T04:37:01.229Z,18.67
2022-08-16T04:38:00.456Z,18.68
2022-08-16T04:39:01.472Z,18.72
2022-08-16T04:40:00.530Z,18.76
2022-08-16T04:41:01.440Z,18.79
2022-08-16T04:42:00.455Z,18.82
2022-08-16T04:43:01.402Z,18.83
2022-08-16T04:44:00.408Z,18.84
2022-08-16T04:45:01.760Z,18.86
2022-08-16T04:46:03.012Z,18.91
2022-08-16T04:47:03.340Z,18.92
2022-08-16T04:48:01.604Z,18.94
2022-08-16T04:49:00.348Z,18.94
2022-08-16T04:50:00.794Z,18.98
2022-08-16T04:51:00.329Z,19.02
2022-08-16T04:52:00.336Z,19.06
2022-08-16T04:53:00.304Z,19.10
2022-08-16T04:54:00.284Z,19.14
2022-08-16T04:55:00.278Z,19.18
2022-08-16T04:56:00.272Z,19.24
2022-08-16T04:57:00.277Z,19.24
2022-08-16T04:58:00.260Z,19.28
2022-08-16T04:59:00.231Z,19.33
2022-08-16T05:00:30.979Z,19.35
2022-08-16T05:01:01.207Z,19.36
2022-08-16T05:02:00.258Z,19.39
2022-08-16T05:03:01.331Z,19.42
2022-08-16T05:04:01.745Z,19.43
2022-08-16T05:05:00.169Z,19.47
2022-08-16T05:06:04.928Z,19.48
2022-08-16T05:07:01.161Z,19.54
2022-08-16T05:08:00.508Z,19.57
2022-08-16T05:09:00.127Z,19.60
2022-08-16T05:10:00.130Z,19.63
2022-08-16T05:11:01.328Z,19.66
2022-08-16T05:12:00.105Z,19.69
2022-08-16T05:13:01.177Z,19.69
2022-08-16T05:14:07.130Z,19.70
2022-08-16T05:15:02.448Z,19.70
2022-08-16T05:16:00.030Z,19.73
2022-08-16T05:17:00.032Z,19.73
2022-08-16T05:18:00.587Z,19.78
2022-08-16T05:19:00.022Z,19.79
2022-08-16T05:20:00.013Z,19.79
2022-08-16T05:21:01.760Z,19.83
2022-08-16T05:22:01.017Z,19.86
2022-08-16T05:22:59.969Z,19.87
2022-08-16T05:24:01.754Z,19.91
2022-08-16T05:24:59.957Z,19.93
2022-08-16T05:25:59.925Z,19.94
2022-08-16T05:26:59.939Z,19.97
2022-08-16T05:28:00.917Z,20.00
2022-08-16T05:28:59.897Z,20.03
2022-08-16T05:30:35.108Z,20.06
2022-08-16T05:31:00.880Z,20.08
2022-08-16T05:31:59.915Z,20.09
2022-08-16T05:32:59.848Z,20.12
2022-08-16T05:33:59.839Z,20.12
2022-08-16T05:34:59.886Z,20.13
2022-08-16T05:35:59.833Z,20.16
2022-08-16T05:36:59.833Z,20.16
2022-08-16T05:37:59.799Z,20.18
2022-08-16T05:38:59.798Z,20.20
2022-08-16T05:39:59.828Z,20.24
2022-08-16T05:41:00.793Z,20.27
2022-08-16T05:41:59.772Z,20.30
2022-08-16T05:42:59.747Z,20.33
2022-08-16T05:43:59.744Z,20.39
2022-08-16T05:45:00.725Z,20.43
2022-08-16T05:45:59.735Z,20.42
2022-08-16T05:47:00.347Z,20.47
2022-08-16T05:48:01.435Z,20.50
2022-08-16T05:49:05.879Z,20.54
2022-08-16T05:50:00.675Z,20.58
2022-08-16T05:50:59.682Z,20.61
2022-08-16T05:51:59.649Z,20.65
2022-08-16T05:52:59.644Z,20.66
2022-08-16T05:53:59.652Z,20.69
2022-08-16T05:55:01.444Z,20.71
2022-08-16T05:55:59.603Z,20.71
2022-08-16T05:56:59.875Z,20.76
2022-08-16T05:57:59.581Z,20.79
2022-08-16T05:58:59.590Z,20.83
2022-08-16T06:00:01.142Z,20.87
2022-08-16T06:01:00.693Z,20.89
2022-08-16T06:01:59.705Z,20.95
2022-08-16T06:03:00.151Z,20.95
2022-08-16T06:03:59.880Z,20.96
2022-08-16T06:04:59.504Z,21.01
2022-08-16T06:06:00.621Z,21.04
2022-08-16T06:07:00.872Z,21.11
2022-08-16T06:07:59.513Z,21.14
2022-08-16T06:08:59.475Z,21.19
2022-08-16T06:09:59.877Z,21.21
2022-08-16T06:11:10.251Z,21.24
2022-08-16T06:12:00.429Z,21.27
2022-08-16T06:12:59.414Z,21.30
2022-08-16T06:13:59.395Z,21.34
2022-08-16T06:14:59.972Z,21.35
2022-08-16T06:15:59.386Z,21.38
2022-08-16T06:17:05.295Z,21.41
2022-08-16T06:18:00.514Z,21.42
2022-08-16T06:19:04.828Z,21.44
2022-08-16T06:19:59.356Z,21.42
2022-08-16T06:20:59.915Z,21.45
2022-08-16T06:21:59.319Z,21.46
2022-08-16T06:23:03.346Z,21.54
2022-08-16T06:24:01.472Z,21.60
2022-08-16T06:25:00.558Z,21.63
2022-08-16T06:26:01.252Z,21.64
2022-08-16T06:26:59.284Z,21.72
2022-08-16T06:27:59.254Z,21.76
2022-08-16T06:28:59.267Z,21.82
2022-08-16T06:30:01.180Z,21.88
2022-08-16T06:30:59.213Z,21.91
2022-08-16T06:31:59.208Z,21.91
2022-08-16T06:32:59.426Z,21.94
2022-08-16T06:33:59.383Z,21.95
2022-08-16T06:35:02.764Z,22.01
2022-08-16T06:35:59.482Z,21.99
2022-08-16T06:36:59.698Z,22.04
2022-08-16T06:37:59.146Z,22.10
2022-08-16T06:38:59.137Z,22.13
2022-08-16T06:39:59.156Z,22.17
2022-08-16T06:40:59.131Z,22.20
2022-08-16T06:41:59.433Z,22.27
2022-08-16T06:42:59.343Z,22.32
2022-08-16T06:43:59.092Z,22.37
2022-08-16T06:44:59.083Z,22.41
2022-08-16T06:45:59.080Z,22.49
2022-08-16T06:46:59.042Z,22.49
2022-08-16T06:47:59.042Z,22.50
2022-08-16T06:48:59.028Z,22.52
2022-08-16T06:49:58.999Z,22.50
2022-08-16T06:50:59.009Z,22.49
2022-08-16T06:52:02.896Z,22.43
2022-08-16T06:53:01.129Z,22.41
2022-08-16T06:53:59.448Z,22.39
2022-08-16T06:54:58.966Z,22.38
2022-08-16T06:55:58.943Z,22.39
2022-08-16T06:56:58.943Z,22.39
2022-08-16T06:57:58.966Z,22.38
2022-08-16T06:58:58.914Z,22.39
2022-08-16T06:59:58.934Z,22.38
2022-08-16T07:00:59.846Z,22.38
2022-08-16T07:01:58.989Z,22.38
2022-08-16T07:02:58.952Z,22.44
2022-08-16T07:03:58.853Z,22.50
2022-08-16T07:04:58.858Z,22.56
2022-08-16T07:05:58.838Z,22.57
2022-08-16T07:06:58.841Z,22.56
2022-08-16T07:07:58.814Z,22.54
2022-08-16T07:08:58.839Z,22.56
2022-08-16T07:09:58.791Z,22.60
2022-08-16T07:10:58.784Z,22.59
2022-08-16T07:12:03.196Z,22.52
2022-08-16T07:13:04.471Z,22.49
2022-08-16T07:14:24.349Z,22.52
2022-08-16T07:15:00.029Z,22.59
2022-08-16T07:15:58.729Z,22.64
2022-08-16T07:16:59.173Z,22.69
2022-08-16T07:17:58.706Z,22.72
2022-08-16T07:19:01.982Z,22.74
2022-08-16T07:20:03.131Z,22.78
2022-08-16T07:21:01.973Z,22.80
2022-08-16T07:21:59.684Z,22.83
2022-08-16T07:22:59.433Z,22.87
2022-08-16T07:24:05.513Z,22.90
2022-08-16T07:24:59.644Z,22.93
2022-08-16T07:25:58.616Z,22.97
2022-08-16T07:26:58.636Z,22.99
2022-08-16T07:27:58.596Z,22.99
2022-08-16T07:28:58.577Z,23.01
2022-08-16T07:29:58.583Z,23.01
2022-08-16T07:30:58.564Z,23.02
2022-08-16T07:31:58.580Z,23.04
2022-08-16T07:32:58.549Z,23.04
2022-08-16T07:33:58.534Z,23.04
2022-08-16T07:34:58.521Z,23.04
2022-08-16T07:35:58.530Z,23.05
2022-08-16T07:36:58.920Z,23.09
2022-08-16T07:37:58.485Z,23.12
2022-08-16T07:38:58.473Z,23.11
2022-08-16T07:39:58.514Z,23.05
2022-08-16T07:41:00.030Z,22.99
2022-08-16T07:41:58.447Z,22.94
2022-08-16T07:42:58.442Z,22.97
2022-08-16T07:43:58.421Z,22.96
2022-08-16T07:44:58.431Z,23.04
2022-08-16T07:45:58.422Z,23.11
2022-08-16T07:46:58.397Z,23.15
2022-08-16T07:47:58.380Z,23.24
2022-08-16T07:49:02.511Z,23.29
2022-08-16T07:49:58.548Z,23.38
2022-08-16T07:50:59.721Z,23.42
2022-08-16T07:51:58.339Z,23.38
2022-08-16T07:53:00.109Z,23.29
2022-08-16T07:54:02.336Z,23.31
2022-08-16T07:54:59.312Z,23.34
2022-08-16T07:55:58.335Z,23.40
2022-08-16T07:56:58.297Z,23.50
2022-08-16T07:58:01.106Z,23.55
2022-08-16T07:58:59.254Z,23.60
2022-08-16T07:59:58.245Z,23.68
2022-08-16T08:00:58.347Z,23.71
2022-08-16T08:01:58.246Z,23.75
2022-08-16T08:02:58.213Z,23.77
2022-08-16T08:03:58.204Z,23.82
2022-08-16T08:04:58.203Z,23.85
2022-08-16T08:05:58.186Z,23.92
2022-08-16T08:06:58.214Z,24.00
2022-08-16T08:07:58.178Z,24.00
2022-08-16T08:08:59.402Z,24.08
2022-08-16T08:09:58.153Z,24.14
2022-08-16T08:10:58.128Z,24.22
2022-08-16T08:11:59.899Z,24.29
2022-08-16T08:12:59.411Z,24.34
2022-08-16T08:14:02.953Z,24.34
2022-08-16T08:14:59.106Z,24.31
2022-08-16T08:15:59.042Z,24.32
2022-08-16T08:16:58.075Z,24.38
2022-08-16T08:18:30.278Z,24.39
2022-08-16T08:19:00.900Z,24.42
2022-08-16T08:19:58.021Z,24.44
2022-08-16T08:20:58.861Z,24.49
2022-08-16T08:21:59.353Z,24.52
2022-08-16T08:23:00.998Z,24.53
2022-08-16T08:23:57.983Z,24.59
2022-08-16T08:24:59.594Z,24.63
2022-08-16T08:25:58.967Z,24.67
2022-08-16T08:26:57.970Z,24.71
2022-08-16T08:27:57.970Z,24.79
2022-08-16T08:29:00.699Z,24.69
2022-08-16T08:30:09.248Z,24.71
2022-08-16T08:31:01.533Z,24.71
2022-08-16T08:31:58.853Z,24.68
2022-08-16T08:33:00.685Z,24.68
2022-08-16T08:33:57.883Z,24.71
2022-08-16T08:35:03.212Z,24.73
2022-08-16T08:36:00.960Z,24.82
2022-08-16T08:36:57.871Z,24.87
2022-08-16T08:37:57.848Z,24.94
2022-08-16T08:38:57.829Z,24.94
2022-08-16T08:39:57.896Z,24.91
2022-08-16T08:40:57.831Z,24.88
2022-08-16T08:41:58.748Z,24.88
2022-08-16T08:43:00.792Z,24.94
2022-08-16T08:43:59.778Z,24.97
2022-08-16T08:44:57.762Z,25.01
2022-08-16T08:45:57.762Z,25.06
2022-08-16T08:47:00.003Z,25.05
2022-08-16T08:47:58.636Z,25.05
2022-08-16T08:48:59.844Z,25.06
2022-08-16T08:49:58.673Z,25.10
2022-08-16T08:50:57.703Z,25.13
2022-08-16T08:51:57.682Z,25.17
2022-08-16T08:52:57.689Z,25.20
2022-08-16T08:53:58.464Z,25.20
2022-08-16T08:54:57.669Z,25.19
2022-08-16T08:55:59.284Z,25.24
2022-08-16T08:56:57.666Z,25.22
2022-08-16T08:57:57.617Z,25.25
2022-08-16T08:58:58.302Z,25.28
2022-08-16T08:59:57.593Z,25.31
2022-08-16T09:00:57.586Z,25.35
2022-08-16T09:01:58.632Z,25.39
2022-08-16T09:02:57.968Z,25.46
2022-08-16T09:03:57.616Z,25.52
2022-08-16T09:04:57.545Z,25.54
2022-08-16T09:05:57.577Z,25.61
2022-08-16T09:06:58.578Z,25.62
2022-08-16T09:08:01.624Z,25.61
2022-08-16T09:08:57.616Z,25.62
2022-08-16T09:10:06.347Z,25.65
2022-08-16T09:11:01.320Z,25.69
2022-08-16T09:12:06.048Z,25.72
2022-08-16T09:12:58.463Z,25.74
2022-08-16T09:13:57.462Z,25.79
2022-08-16T09:14:57.435Z,25.84
2022-08-16T09:15:57.432Z,25.89
2022-08-16T09:17:03.355Z,25.91
2022-08-16T09:17:58.402Z,25.94
2022-08-16T09:19:00.841Z,25.97
2022-08-16T09:19:59.426Z,25.99
2022-08-16T09:20:59.842Z,25.98
2022-08-16T09:21:57.381Z,25.93
2022-08-16T09:22:57.362Z,25.94
2022-08-16T09:23:57.339Z,25.91
2022-08-16T09:25:11.233Z,25.94
2022-08-16T09:25:58.333Z,25.97
2022-08-16T09:26:57.312Z,25.99
2022-08-16T09:28:02.132Z,25.98
2022-08-16T09:29:14.988Z,26.02
2022-08-16T09:29:59.904Z,26.09
2022-08-16T09:30:57.268Z,26.12
2022-08-16T09:31:57.262Z,26.22
2022-08-16T09:32:57.259Z,26.27
2022-08-16T09:33:57.216Z,26.32
2022-08-16T09:34:58.130Z,26.36
2022-08-16T09:35:57.206Z,26.35
2022-08-16T09:36:57.254Z,26.36
2022-08-16T09:38:00.823Z,26.40
2022-08-16T09:38:59.962Z,26.43
2022-08-16T09:39:57.218Z,26.44
2022-08-16T09:40:57.262Z,26.37
2022-08-16T09:41:57.133Z,26.31
2022-08-16T09:42:59.191Z,26.31
2022-08-16T09:43:59.796Z,26.37
2022-08-16T09:45:10.529Z,26.42
2022-08-16T09:45:58.126Z,26.40
2022-08-16T09:46:57.887Z,26.42
2022-08-16T09:47:58.433Z,26.47
2022-08-16T09:48:58.033Z,26.52
2022-08-16T09:49:57.047Z,26.57
2022-08-16T09:50:57.056Z,26.62
2022-08-16T09:51:57.243Z,26.67
2022-08-16T09:52:57.026Z,26.72
2022-08-16T09:53:57.020Z,26.77
2022-08-16T09:54:57.061Z,26.80
2022-08-16T09:55:56.997Z,26.84
2022-08-16T09:56:56.993Z,26.89
2022-08-16T09:57:56.984Z,26.94
2022-08-16T09:59:03.763Z,26.96
2022-08-16T09:59:57.951Z,26.99
2022-08-16T10:00:56.955Z,26.98
2022-08-16T10:01:56.931Z,27.01
2022-08-16T10:02:57.094Z,27.06
2022-08-16T10:04:01.579Z,27.10
2022-08-16T10:04:58.027Z,27.10
2022-08-16T10:05:56.879Z,27.05
2022-08-16T10:07:56.860Z,27.05
2022-08-16T10:09:05.758Z,27.09
2022-08-16T10:09:57.854Z,27.16
2022-08-16T10:10:56.839Z,27.16
2022-08-16T10:12:11.636Z,27.14
2022-08-16T10:12:57.804Z,27.19
2022-08-16T10:13:56.784Z,27.14
2022-08-16T10:14:56.793Z,27.11
2022-08-16T10:15:56.768Z,27.06
2022-08-16T10:16:57.503Z,27.01
2022-08-16T10:18:01.433Z,26.96
2022-08-16T10:19:06.695Z,26.86
2022-08-16T10:19:57.755Z,26.81
2022-08-16T10:20:57.350Z,26.74
2022-08-16T10:21:56.777Z,26.72
2022-08-16T10:23:03.688Z,26.74
2022-08-16T10:23:57.684Z,26.76
2022-08-16T10:25:00.191Z,26.77
2022-08-16T10:27:17.656Z,26.77
2022-08-16T10:27:17.874Z,26.81
2022-08-16T10:28:27.826Z,26.81
2022-08-16T10:28:57.637Z,26.81
2022-08-16T10:30:01.492Z,26.80
2022-08-16T10:30:59.139Z,26.81
2022-08-16T10:31:56.601Z,26.83
2022-08-16T10:32:56.591Z,26.83
2022-08-16T10:33:56.606Z,26.84
2022-08-16T10:34:56.568Z,26.84
2022-08-16T10:35:57.687Z,26.80
2022-08-16T10:36:56.556Z,26.74
2022-08-16T10:37:56.537Z,26.79
2022-08-16T10:38:56.517Z,26.89
2022-08-16T10:39:56.515Z,26.98
2022-08-16T10:40:56.516Z,27.01
2022-08-16T10:41:56.493Z,27.02
2022-08-16T10:42:56.477Z,27.04
2022-08-16T10:43:56.469Z,27.11
2022-08-16T10:44:56.462Z,27.14
2022-08-16T10:46:00.423Z,27.20
2022-08-16T10:46:56.429Z,27.26
2022-08-16T10:48:02.777Z,27.33
2022-08-16T10:48:57.420Z,27.42
2022-08-16T10:49:56.418Z,27.47
2022-08-16T10:50:56.397Z,27.43
2022-08-16T10:52:03.088Z,27.46
2022-08-16T10:52:59.454Z,27.50
2022-08-16T10:53:56.362Z,27.58
2022-08-16T10:54:59.707Z,27.66
2022-08-16T10:55:57.793Z,27.73
2022-08-16T10:56:57.078Z,27.77
2022-08-16T10:57:56.320Z,27.84
2022-08-16T10:58:56.385Z,27.82
2022-08-16T10:59:58.525Z,27.89
2022-08-16T11:00:57.728Z,27.91
2022-08-16T11:03:01.262Z,27.91
2022-08-16T11:03:57.292Z,27.89
2022-08-16T11:05:11.893Z,27.80
2022-08-16T11:06:00.490Z,27.71
2022-08-16T11:07:57.497Z,27.86
2022-08-16T11:10:19.722Z,27.99
2022-08-16T11:11:07.049Z,28.06
2022-08-16T11:12:14.426Z,28.11
2022-08-16T11:12:57.317Z,28.13
2022-08-16T11:13:58.897Z,28.19
2022-08-16T11:15:12.375Z,28.26
2022-08-16T11:15:57.509Z,28.19
2022-08-16T11:17:10.402Z,28.14
2022-08-16T11:19:06.303Z,28.16
2022-08-16T11:20:01.195Z,28.29
2022-08-16T11:20:57.066Z,28.25
2022-08-16T11:22:38.642Z,28.16
2022-08-16T11:22:57.035Z,28.07
2022-08-16T11:23:57.148Z,28.03
2022-08-16T11:26:07.694Z,27.96
2022-08-16T11:27:56.989Z,28.03
2022-08-16T11:29:56.995Z,28.01
2022-08-16T11:30:57.362Z,28.11
2022-08-16T11:31:55.950Z,28.21
2022-08-16T11:32:55.935Z,28.04
2022-08-16T11:33:56.128Z,27.88
2022-08-16T11:35:11.063Z,27.85
2022-08-16T11:37:00.977Z,27.80
2022-08-16T11:38:46.636Z,27.84
2022-08-16T11:38:57.769Z,27.82
2022-08-16T11:39:59.958Z,27.77
2022-08-16T11:40:55.869Z,27.76
2022-08-16T11:41:55.847Z,27.77
2022-08-16T11:42:55.830Z,27.77
2022-08-16T11:43:55.831Z,27.88
2022-08-16T11:44:56.903Z,27.91
2022-08-16T11:45:56.596Z,27.99
2022-08-16T11:46:55.798Z,27.98
2022-08-16T11:47:55.786Z,28.07
2022-08-16T11:48:55.768Z,28.03
2022-08-16T11:49:55.789Z,27.94
2022-08-16T11:50:55.753Z,28.06
2022-08-16T11:51:55.751Z,28.06
2022-08-16T11:52:55.727Z,28.04
2022-08-16T11:53:55.714Z,28.04
2022-08-16T11:54:57.217Z,28.03
2022-08-16T11:55:55.692Z,28.01
2022-08-16T11:56:57.617Z,28.04
2022-08-16T11:57:56.390Z,28.04
2022-08-16T11:58:56.916Z,28.03
2022-08-16T11:59:55.644Z,28.03
2022-08-16T12:00:55.653Z,28.01
2022-08-16T12:01:59.244Z,27.96
2022-08-16T12:02:55.615Z,27.91
2022-08-16T12:03:55.633Z,27.88
2022-08-16T12:04:55.602Z,27.88
2022-08-16T12:05:55.608Z,27.91
2022-08-16T12:06:55.577Z,28.04
2022-08-16T12:07:55.574Z,28.13
2022-08-16T12:08:55.614Z,28.19
2022-08-16T12:09:55.558Z,28.17
2022-08-16T12:10:59.425Z,28.19
2022-08-16T12:11:56.547Z,28.25
2022-08-16T12:12:55.511Z,28.29
2022-08-16T12:13:55.534Z,28.28
2022-08-16T12:15:00.033Z,28.32
2022-08-16T12:15:56.502Z,28.31
2022-08-16T12:16:56.836Z,28.19
2022-08-16T12:17:56.406Z,28.14
2022-08-16T12:18:55.458Z,28.14
2022-08-16T12:19:55.446Z,27.95
2022-08-16T12:20:55.479Z,27.82
2022-08-16T12:21:58.042Z,27.71
2022-08-16T12:22:55.398Z,27.67
2022-08-16T12:23:55.417Z,27.67
2022-08-16T12:24:55.397Z,27.73
2022-08-16T12:25:55.390Z,27.74
2022-08-16T12:26:55.370Z,27.91
2022-08-16T12:27:55.357Z,28.03
2022-08-16T12:28:56.481Z,28.21
2022-08-16T12:29:58.297Z,28.32
2022-08-16T12:30:55.331Z,28.41
2022-08-16T12:31:59.240Z,28.41
2022-08-16T12:32:57.519Z,28.47
2022-08-16T12:33:57.433Z,28.36
2022-08-16T12:34:55.280Z,28.31
2022-08-16T12:35:55.274Z,28.26
2022-08-16T12:36:55.262Z,28.25
2022-08-16T12:37:56.611Z,28.19
2022-08-16T12:38:55.233Z,28.16
2022-08-16T12:39:55.243Z,28.16
2022-08-16T12:40:56.990Z,28.14
2022-08-16T12:41:55.239Z,28.14
2022-08-16T12:42:58.540Z,28.14
2022-08-16T12:43:57.304Z,28.16
2022-08-16T12:44:56.177Z,28.16
2022-08-16T12:45:55.293Z,28.07
2022-08-16T12:46:55.176Z,28.01
2022-08-16T12:48:10.054Z,27.98
2022-08-16T12:48:56.141Z,27.92
2022-08-16T12:49:55.116Z,27.88
2022-08-16T12:50:55.111Z,27.85
2022-08-16T12:51:59.566Z,27.85
2022-08-16T12:52:56.302Z,27.80
2022-08-16T12:53:55.113Z,27.77
2022-08-16T12:54:55.301Z,27.76
2022-08-16T12:55:55.078Z,27.73
2022-08-16T12:56:55.046Z,27.76
2022-08-16T12:57:57.955Z,27.73
2022-08-16T12:58:55.361Z,27.71
2022-08-16T12:59:55.031Z,27.70
2022-08-16T13:00:55.032Z,27.67